sensor_id;sensor_type;location;lat;lon;timestamp;pressure;altitude;pressure_sealevel;temperature;humidity
32324;BME280;25666;44.350;9.222;2022-07-10T00:00:26;101747.00;;;22.22;100.00
32324;BME280;25666;44.350;9.222;2022-07-10T00:02:52;101756.72;;;22.25;100.00
32324;BME280;25666;44.350;9.222;2022-07-10T00:05:18;101744.19;;;22.22;100.00
32324;BME280;25666;44.350;9.222;2022-07-10T00:07:44;101747.81;;;22.12;100.00
32324;BME280;25666;44.350;9.222;2022-07-10T00:10:10;101750.66;;;21.95;100.00
32324;BME280;25666;44.350;9.222;2022-07-10T00:12:36;101746.19;;;22.01;100.00
32324;BME280;25666;44.350;9.222;2022-07-10T00:15:05;101751.47;;;22.06;100.00
32324;BME280;25666;44.350;9.222;2022-07-10T00:17:32;101751.47;;;22.06;100.00
32324;BME280;25666;44.350;9.222;2022-07-10T00:19:58;101760.38;;;22.18;100.00
32324;BME280;25666;44.350;9.222;2022-07-10T00:22:23;101750.25;;;22.31;100.00
32324;BME280;25666;44.350;9.222;2022-07-10T00:24:49;101752.69;;;22.36;100.00
32324;BME280;25666;44.350;9.222;2022-07-10T00:27:19;101739.69;;;22.46;100.00
32324;BME280;25666;44.350;9.222;2022-07-10T00:29:45;101744.94;;;22.65;100.00
32324;BME280;25666;44.350;9.222;2022-07-10T00:32:10;101749.03;;;22.39;100.00
32324;BME280;25666;44.350;9.222;2022-07-10T00:34:36;101751.44;;;22.34;100.00
32324;BME280;25666;44.350;9.222;2022-07-10T00:37:03;101752.69;;;22.15;100.00
32324;BME280;25666;44.350;9.222;2022-07-10T00:39:29;101753.09;;;22.03;100.00
32324;BME280;25666;44.350;9.222;2022-07-10T00:41:54;101755.91;;;22.03;100.00
32324;BME280;25666;44.350;9.222;2022-07-10T00:44:20;101753.91;;;22.04;100.00
32324;BME280;25666;44.350;9.222;2022-07-10T00:46:46;101759.97;;;21.99;100.00
32324;BME280;25666;44.350;9.222;2022-07-10T00:49:11;101763.63;;;21.92;100.00
32324;BME280;25666;44.350;9.222;2022-07-10T00:51:37;101758.75;;;22.00;100.00
32324;BME280;25666;44.350;9.222;2022-07-10T00:54:05;101755.09;;;21.88;100.00
32324;BME280;25666;44.350;9.222;2022-07-10T00:56:31;101751.03;;;21.93;100.00
32324;BME280;25666;44.350;9.222;2022-07-10T00:58:57;101764.38;;;21.78;100.00
32324;BME280;25666;44.350;9.222;2022-07-10T01:01:23;101755.88;;;21.78;100.00
32324;BME280;25666;44.350;9.222;2022-07-10T01:03:49;101748.13;;;21.65;100.00
32324;BME280;25666;44.350;9.222;2022-07-10T01:06:16;101755.84;;;21.75;100.00
32324;BME280;25666;44.350;9.222;2022-07-10T01:08:42;101755.91;;;21.89;100.00
32324;BME280;25666;44.350;9.222;2022-07-10T01:11:09;101748.22;;;21.97;100.00
32324;BME280;25666;44.350;9.222;2022-07-10T01:13:36;101753.84;;;21.82;100.00
32324;BME280;25666;44.350;9.222;2022-07-10T01:16:02;101746.94;;;21.83;100.00
32324;BME280;25666;44.350;9.222;2022-07-10T01:18:28;101751.41;;;21.77;100.00
32324;BME280;25666;44.350;9.222;2022-07-10T01:20:55;101753.44;;;21.77;100.00
32324;BME280;25666;44.350;9.222;2022-07-10T01:23:21;101746.97;;;21.80;100.00
32324;BME280;25666;44.350;9.222;2022-07-10T01:25:48;101752.22;;;21.81;100.00
32324;BME280;25666;44.350;9.222;2022-07-10T01:28:14;101752.28;;;21.88;100.00
32324;BME280;25666;44.350;9.222;2022-07-10T01:30:40;101745.38;;;22.04;100.00
32324;BME280;25666;44.350;9.222;2022-07-10T01:33:05;101748.97;;;21.86;100.00
32324;BME280;25666;44.350;9.222;2022-07-10T01:35:31;101738.03;;;21.78;100.00
32324;BME280;25666;44.350;9.222;2022-07-10T01:37:56;101738.84;;;21.78;100.00
32324;BME280;25666;44.350;9.222;2022-07-10T01:40:22;101749.38;;;21.67;100.00
32324;BME280;25666;44.350;9.222;2022-07-10T01:42:47;101742.91;;;21.67;100.00
32324;BME280;25666;44.350;9.222;2022-07-10T01:45:16;101742.16;;;21.95;100.00
32324;BME280;25666;44.350;9.222;2022-07-10T01:47:42;101745.75;;;21.88;100.00
32324;BME280;25666;44.350;9.222;2022-07-10T01:50:08;101749.78;;;21.87;100.00
32324;BME280;25666;44.350;9.222;2022-07-10T01:52:34;101754.25;;;21.74;100.00
32324;BME280;25666;44.350;9.222;2022-07-10T01:55:00;101749.84;;;22.12;100.00
32324;BME280;25666;44.350;9.222;2022-07-10T01:57:25;101743.31;;;21.86;100.00
32324;BME280;25666;44.350;9.222;2022-07-10T01:59:51;101747.78;;;21.73;100.00
32324;BME280;25666;44.350;9.222;2022-07-10T02:02:16;101748.97;;;21.69;100.00
32324;BME280;25666;44.350;9.222;2022-07-10T02:04:42;101752.22;;;21.74;100.00
32324;BME280;25666;44.350;9.222;2022-07-10T02:07:16;101746.94;;;21.62;100.00
32324;BME280;25666;44.350;9.222;2022-07-10T02:09:42;101750.19;;;21.64;100.00
32324;BME280;25666;44.350;9.222;2022-07-10T02:12:10;101755.81;;;21.57;100.00
32324;BME280;25666;44.350;9.222;2022-07-10T02:14:36;101756.22;;;21.49;100.00
32324;BME280;25666;44.350;9.222;2022-07-10T02:17:03;101752.97;;;21.54;100.00
32324;BME280;25666;44.350;9.222;2022-07-10T02:19:29;101750.97;;;21.54;100.00
32324;BME280;25666;44.350;9.222;2022-07-10T02:21:54;101754.97;;;21.39;100.00
32324;BME280;25666;44.350;9.222;2022-07-10T02:24:20;101753.75;;;21.33;100.00
32324;BME280;25666;44.350;9.222;2022-07-10T02:26:46;101756.13;;;21.24;100.00
32324;BME280;25666;44.350;9.222;2022-07-10T02:29:11;101750.47;;;21.27;100.00
32324;BME280;25666;44.350;9.222;2022-07-10T02:31:37;101752.50;;;21.30;100.00
32324;BME280;25666;44.350;9.222;2022-07-10T02:34:10;101746.00;;;21.23;100.00
32324;BME280;25666;44.350;9.222;2022-07-10T02:36:36;101745.66;;;21.35;100.00
32324;BME280;25666;44.350;9.222;2022-07-10T02:39:06;101742.81;;;21.35;100.00
32324;BME280;25666;44.350;9.222;2022-07-10T02:41:33;101744.47;;;21.47;100.00
32324;BME280;25666;44.350;9.222;2022-07-10T02:43:58;101744.44;;;21.43;100.00
32324;BME280;25666;44.350;9.222;2022-07-10T02:46:25;101744.88;;;21.49;100.00
32324;BME280;25666;44.350;9.222;2022-07-10T02:48:50;101741.63;;;21.36;100.00
32324;BME280;25666;44.350;9.222;2022-07-10T02:51:16;101740.41;;;21.44;100.00
32324;BME280;25666;44.350;9.222;2022-07-10T02:53:42;101751.31;;;21.39;100.00
32324;BME280;25666;44.350;9.222;2022-07-10T02:56:07;101749.28;;;21.35;100.00
32324;BME280;25666;44.350;9.222;2022-07-10T02:58:34;101747.63;;;21.27;100.00
32324;BME280;25666;44.350;9.222;2022-07-10T03:01:01;101745.69;;;21.42;100.00
32324;BME280;25666;44.350;9.222;2022-07-10T03:03:26;101749.28;;;21.35;100.00
32324;BME280;25666;44.350;9.222;2022-07-10T03:05:52;101745.25;;;21.33;100.00
32324;BME280;25666;44.350;9.222;2022-07-10T03:08:17;101750.88;;;21.26;100.00
32324;BME280;25666;44.350;9.222;2022-07-10T03:10:43;101747.63;;;21.27;100.00
32324;BME280;25666;44.350;9.222;2022-07-10T03:13:09;101738.34;;;21.30;100.00
32324;BME280;25666;44.350;9.222;2022-07-10T03:15:35;101740.38;;;21.33;100.00
32324;BME280;25666;44.350;9.222;2022-07-10T03:18:01;101748.53;;;21.53;100.00
32324;BME280;25666;44.350;9.222;2022-07-10T03:20:26;101745.25;;;21.33;100.00
32324;BME280;25666;44.350;9.222;2022-07-10T03:22:52;101748.91;;;21.44;100.00
32324;BME280;25666;44.350;9.222;2022-07-10T03:25:17;101747.28;;;21.47;100.00
32324;BME280;25666;44.350;9.222;2022-07-10T03:27:43;101739.97;;;21.35;100.00
32324;BME280;25666;44.350;9.222;2022-07-10T03:30:09;101752.13;;;21.32;100.00
32324;BME280;25666;44.350;9.222;2022-07-10T03:32:34;101747.63;;;21.24;100.00
32324;BME280;25666;44.350;9.222;2022-07-10T03:35:00;101743.97;;;21.16;100.00
32324;BME280;25666;44.350;9.222;2022-07-10T03:37:26;101741.59;;;21.40;100.00
32324;BME280;25666;44.350;9.222;2022-07-10T03:39:51;101739.19;;;21.42;100.00
32324;BME280;25666;44.350;9.222;2022-07-10T03:42:17;101742.78;;;21.28;100.00
32324;BME280;25666;44.350;9.222;2022-07-10T03:44:43;101746.78;;;21.16;100.00
32324;BME280;25666;44.350;9.222;2022-07-10T03:47:08;101744.84;;;21.34;100.00
32324;BME280;25666;44.350;9.222;2022-07-10T03:49:34;101739.94;;;21.17;100.00
32324;BME280;25666;44.350;9.222;2022-07-10T03:52:01;101740.38;;;21.26;100.00
32324;BME280;25666;44.350;9.222;2022-07-10T03:54:28;101741.56;;;21.22;100.00
32324;BME280;25666;44.350;9.222;2022-07-10T03:56:53;101740.81;;;21.35;100.00
32324;BME280;25666;44.350;9.222;2022-07-10T03:59:37;101742.41;;;21.33;100.00
32324;BME280;25666;44.350;9.222;2022-07-10T04:02:03;101741.56;;;21.25;100.00
32324;BME280;25666;44.350;9.222;2022-07-10T04:04:29;101733.06;;;21.25;100.00
32324;BME280;25666;44.350;9.222;2022-07-10T04:06:54;101737.13;;;21.31;100.00
32324;BME280;25666;44.350;9.222;2022-07-10T04:09:20;101737.91;;;21.21;100.00
32324;BME280;25666;44.350;9.222;2022-07-10T04:11:46;101747.69;;;21.38;100.00
32324;BME280;25666;44.350;9.222;2022-07-10T04:14:11;101737.94;;;21.32;100.00
32324;BME280;25666;44.350;9.222;2022-07-10T04:16:37;101740.34;;;21.23;100.00
32324;BME280;25666;44.350;9.222;2022-07-10T04:19:02;101737.56;;;21.44;100.00
32324;BME280;25666;44.350;9.222;2022-07-10T04:21:28;101737.16;;;21.35;100.00
32324;BME280;25666;44.350;9.222;2022-07-10T04:23:53;101733.50;;;21.31;100.00
32324;BME280;25666;44.350;9.222;2022-07-10T04:26:19;101739.94;;;21.28;100.00
32324;BME280;25666;44.350;9.222;2022-07-10T04:28:45;101731.88;;;21.30;100.00
32324;BME280;25666;44.350;9.222;2022-07-10T04:31:11;101745.22;;;21.29;100.00
32324;BME280;25666;44.350;9.222;2022-07-10T04:33:36;101739.94;;;21.24;100.00
32324;BME280;25666;44.350;9.222;2022-07-10T04:36:02;101739.16;;;21.31;100.00
32324;BME280;25666;44.350;9.222;2022-07-10T04:38:27;101733.91;;;21.33;100.00
32324;BME280;25666;44.350;9.222;2022-07-10T04:40:53;101742.03;;;21.52;100.00
32324;BME280;25666;44.350;9.222;2022-07-10T04:43:18;101733.91;;;21.36;100.00
32324;BME280;25666;44.350;9.222;2022-07-10T04:45:44;101735.16;;;21.46;100.00
32324;BME280;25666;44.350;9.222;2022-07-10T04:48:10;101731.13;;;21.51;100.00
32324;BME280;25666;44.350;9.222;2022-07-10T04:50:36;101736.44;;;21.77;100.00
32324;BME280;25666;44.350;9.222;2022-07-10T04:53:01;101726.34;;;22.39;100.00
32324;BME280;25666;44.350;9.222;2022-07-10T04:55:27;101728.38;;;22.28;100.00
32324;BME280;25666;44.350;9.222;2022-07-10T04:57:52;101731.59;;;22.37;100.00
32324;BME280;25666;44.350;9.222;2022-07-10T05:00:18;101723.47;;;22.54;100.00
32324;BME280;25666;44.350;9.222;2022-07-10T05:02:44;101726.69;;;22.59;100.00
32324;BME280;25666;44.350;9.222;2022-07-10T05:05:09;101724.69;;;22.74;100.00
32324;BME280;25666;44.350;9.222;2022-07-10T05:07:35;101717.63;;;23.07;100.00
32324;BME280;25666;44.350;9.222;2022-07-10T05:10:00;101728.88;;;23.42;100.00
32324;BME280;25666;44.350;9.222;2022-07-10T05:12:26;101720.13;;;23.77;100.00
32324;BME280;25666;44.350;9.222;2022-07-10T05:14:52;101731.03;;;23.82;100.00
32324;BME280;25666;44.350;9.222;2022-07-10T05:17:17;101720.38;;;23.93;100.00
32324;BME280;25666;44.350;9.222;2022-07-10T05:19:43;101729.63;;;24.12;100.00
32324;BME280;25666;44.350;9.222;2022-07-10T05:22:09;101715.16;;;24.36;100.00
32324;BME280;25666;44.350;9.222;2022-07-10T05:24:35;101729.91;;;24.65;100.00
32324;BME280;25666;44.350;9.222;2022-07-10T05:27:01;101728.16;;;25.12;100.00
32324;BME280;25666;44.350;9.222;2022-07-10T05:29:27;101728.59;;;25.37;100.00
32324;BME280;25666;44.350;9.222;2022-07-10T05:31:52;101721.28;;;25.67;100.00
32324;BME280;25666;44.350;9.222;2022-07-10T05:34:18;101728.44;;;26.05;100.00
32324;BME280;25666;44.350;9.222;2022-07-10T05:36:43;101726.59;;;26.41;100.00
32324;BME280;25666;44.350;9.222;2022-07-10T05:39:09;101724.69;;;26.78;100.00
32324;BME280;25666;44.350;9.222;2022-07-10T05:41:34;101718.88;;;27.40;100.00
32324;BME280;25666;44.350;9.222;2022-07-10T05:44:00;101720.22;;;27.72;100.00
32324;BME280;25666;44.350;9.222;2022-07-10T05:46:26;101722.84;;;28.14;100.00
32324;BME280;25666;44.350;9.222;2022-07-10T05:48:51;101721.78;;;28.69;100.00
32324;BME280;25666;44.350;9.222;2022-07-10T05:51:17;101724.91;;;29.45;100.00
32324;BME280;25666;44.350;9.222;2022-07-10T05:53:42;101723.94;;;30.37;100.00
32324;BME280;25666;44.350;9.222;2022-07-10T05:56:08;101720.03;;;31.21;100.00
32324;BME280;25666;44.350;9.222;2022-07-10T05:58:34;101712.22;;;31.83;100.00
32324;BME280;25666;44.350;9.222;2022-07-10T06:00:59;101718.00;;;32.96;100.00
32324;BME280;25666;44.350;9.222;2022-07-10T06:03:25;101708.38;;;32.99;100.00
32324;BME280;25666;44.350;9.222;2022-07-10T06:05:51;101704.72;;;32.53;100.00
32324;BME280;25666;44.350;9.222;2022-07-10T06:08:18;101707.38;;;31.71;100.00
32324;BME280;25666;44.350;9.222;2022-07-10T06:10:43;101710.72;;;31.60;100.00
32324;BME280;25666;44.350;9.222;2022-07-10T06:13:12;101713.25;;;31.06;100.00
32324;BME280;25666;44.350;9.222;2022-07-10T06:15:38;101713.13;;;31.40;100.00
32324;BME280;25666;44.350;9.222;2022-07-10T06:18:04;101705.94;;;31.66;100.00
32324;BME280;25666;44.350;9.222;2022-07-10T06:20:29;101709.63;;;32.16;100.00
32324;BME280;25666;44.350;9.222;2022-07-10T06:22:56;101706.69;;;31.98;100.00
32324;BME280;25666;44.350;9.222;2022-07-10T06:25:22;101713.38;;;32.98;100.00
32324;BME280;25666;44.350;9.222;2022-07-10T06:27:47;101703.91;;;33.07;100.00
32324;BME280;25666;44.350;9.222;2022-07-10T06:30:13;101713.34;;;33.25;100.00
32324;BME280;25666;44.350;9.222;2022-07-10T06:32:39;101706.63;;;32.83;100.00
32324;BME280;25666;44.350;9.222;2022-07-10T06:35:05;101710.41;;;34.18;89.78
32324;BME280;25666;44.350;9.222;2022-07-10T06:37:32;101721.38;;;34.38;87.54
32324;BME280;25666;44.350;9.222;2022-07-10T06:39:58;101716.38;;;35.59;74.96
32324;BME280;25666;44.350;9.222;2022-07-10T06:42:24;101714.47;;;36.20;69.86
32324;BME280;25666;44.350;9.222;2022-07-10T06:44:50;101710.28;;;37.08;67.70
32324;BME280;25666;44.350;9.222;2022-07-10T06:47:18;101715.72;;;38.25;54.30
32324;BME280;25666;44.350;9.222;2022-07-10T06:50:05;101712.53;;;38.71;54.60
32324;BME280;25666;44.350;9.222;2022-07-10T06:52:32;101711.69;;;37.43;60.07
32324;BME280;25666;44.350;9.222;2022-07-10T06:54:58;101714.28;;;37.10;53.82
32324;BME280;25666;44.350;9.222;2022-07-10T06:57:24;101707.31;;;36.56;60.74
32324;BME280;25666;44.350;9.222;2022-07-10T06:59:50;101707.28;;;36.36;54.02
32324;BME280;25666;44.350;9.222;2022-07-10T07:02:34;101709.31;;;35.95;58.14
32324;BME280;25666;44.350;9.222;2022-07-10T07:04:59;101718.00;;;36.10;52.85
32324;BME280;25666;44.350;9.222;2022-07-10T07:07:25;101705.56;;;37.67;44.57
32324;BME280;25666;44.350;9.222;2022-07-10T07:09:50;101712.16;;;39.28;40.39
32324;BME280;25666;44.350;9.222;2022-07-10T07:12:16;101708.66;;;39.02;38.92
32324;BME280;25666;44.350;9.222;2022-07-10T07:14:43;101703.09;;;40.04;35.75
32324;BME280;25666;44.350;9.222;2022-07-10T07:17:08;101697.31;;;39.65;33.64
32324;BME280;25666;44.350;9.222;2022-07-10T07:19:37;101701.25;;;39.95;34.20
32324;BME280;25666;44.350;9.222;2022-07-10T07:22:21;101694.78;;;38.69;37.88
32324;BME280;25666;44.350;9.222;2022-07-10T07:25:06;101709.47;;;39.91;34.76
32324;BME280;25666;44.350;9.222;2022-07-10T07:27:34;101707.41;;;39.75;36.04
32324;BME280;25666;44.350;9.222;2022-07-10T07:30:09;101701.13;;;40.45;34.29
32324;BME280;25666;44.350;9.222;2022-07-10T07:32:36;101693.69;;;40.55;34.58
32324;BME280;25666;44.350;9.222;2022-07-10T07:35:04;101695.91;;;40.27;35.13
32324;BME280;25666;44.350;9.222;2022-07-10T07:37:39;101701.84;;;39.27;34.14
32324;BME280;25666;44.350;9.222;2022-07-10T07:40:06;101702.59;;;40.00;32.05
32324;BME280;25666;44.350;9.222;2022-07-10T07:42:32;101706.44;;;40.41;34.26
32324;BME280;25666;44.350;9.222;2022-07-10T07:44:58;101697.06;;;39.46;32.94
32324;BME280;25666;44.350;9.222;2022-07-10T07:47:24;101703.44;;;39.34;33.24
32324;BME280;25666;44.350;9.222;2022-07-10T07:49:49;101694.66;;;39.61;32.41
32324;BME280;25666;44.350;9.222;2022-07-10T07:52:15;101684.81;;;38.92;30.11
32324;BME280;25666;44.350;9.222;2022-07-10T07:54:40;101689.09;;;38.38;33.31
32324;BME280;25666;44.350;9.222;2022-07-10T07:57:06;101688.69;;;38.62;31.11
32324;BME280;25666;44.350;9.222;2022-07-10T07:59:32;101680.34;;;36.30;33.25
32324;BME280;25666;44.350;9.222;2022-07-10T08:01:57;101688.38;;;34.68;35.77
32324;BME280;25666;44.350;9.222;2022-07-10T08:04:23;101692.25;;;33.94;34.58
32324;BME280;25666;44.350;9.222;2022-07-10T08:06:48;101678.88;;;33.73;35.81
32324;BME280;25666;44.350;9.222;2022-07-10T08:09:18;101679.56;;;33.17;38.53
32324;BME280;25666;44.350;9.222;2022-07-10T08:11:44;101678.63;;;32.74;41.95
32324;BME280;25666;44.350;9.222;2022-07-10T08:14:09;101683.53;;;32.10;41.26
32324;BME280;25666;44.350;9.222;2022-07-10T08:16:35;101681.97;;;31.78;47.79
32324;BME280;25666;44.350;9.222;2022-07-10T08:19:00;101680.50;;;31.65;51.16
32324;BME280;25666;44.350;9.222;2022-07-10T08:21:26;101675.06;;;31.36;49.46
32324;BME280;25666;44.350;9.222;2022-07-10T08:23:51;101685.09;;;31.53;49.63
32324;BME280;25666;44.350;9.222;2022-07-10T08:26:19;101676.78;;;31.03;46.66
32324;BME280;25666;44.350;9.222;2022-07-10T08:28:44;101667.50;;;30.99;47.52
32324;BME280;25666;44.350;9.222;2022-07-10T08:31:10;101668.06;;;30.94;50.05
32324;BME280;25666;44.350;9.222;2022-07-10T08:33:35;101672.22;;;30.71;54.60
32324;BME280;25666;44.350;9.222;2022-07-10T08:36:01;101669.41;;;30.58;50.70
32324;BME280;25666;44.350;9.222;2022-07-10T08:38:27;101668.66;;;30.45;52.43
32324;BME280;25666;44.350;9.222;2022-07-10T08:40:54;101668.63;;;30.11;53.61
32324;BME280;25666;44.350;9.222;2022-07-10T08:43:23;101658.78;;;29.99;57.56
32324;BME280;25666;44.350;9.222;2022-07-10T08:45:50;101660.41;;;29.75;59.36
32324;BME280;25666;44.350;9.222;2022-07-10T08:48:21;101647.09;;;29.94;65.55
32324;BME280;25666;44.350;9.222;2022-07-10T08:50:47;101657.56;;;29.62;84.55
32324;BME280;25666;44.350;9.222;2022-07-10T08:53:17;101647.69;;;29.51;88.47
32324;BME280;25666;44.350;9.222;2022-07-10T08:55:46;101662.00;;;29.63;91.83
32324;BME280;25666;44.350;9.222;2022-07-10T08:58:12;101649.88;;;29.47;94.77
32324;BME280;25666;44.350;9.222;2022-07-10T09:00:38;101653.25;;;29.16;88.85
32324;BME280;25666;44.350;9.222;2022-07-10T09:03:04;101657.78;;;29.43;92.97
32324;BME280;25666;44.350;9.222;2022-07-10T09:05:29;101653.03;;;29.23;100.00
32324;BME280;25666;44.350;9.222;2022-07-10T09:07:55;101657.47;;;28.99;98.83
32324;BME280;25666;44.350;9.222;2022-07-10T09:10:25;101656.13;;;29.04;97.45
32324;BME280;25666;44.350;9.222;2022-07-10T09:12:58;101659.66;;;29.08;99.72
32324;BME280;25666;44.350;9.222;2022-07-10T09:15:26;101663.22;;;28.99;100.00
32324;BME280;25666;44.350;9.222;2022-07-10T09:18:03;101658.78;;;28.82;100.00
32324;BME280;25666;44.350;9.222;2022-07-10T09:20:36;101654.03;;;29.04;97.20
32324;BME280;25666;44.350;9.222;2022-07-10T09:23:16;101658.50;;;28.93;100.00
32324;BME280;25666;44.350;9.222;2022-07-10T09:25:52;101658.19;;;29.03;93.83
32324;BME280;25666;44.350;9.222;2022-07-10T09:28:22;101663.00;;;29.06;95.15
32324;BME280;25666;44.350;9.222;2022-07-10T09:30:49;101650.63;;;29.09;95.57
32324;BME280;25666;44.350;9.222;2022-07-10T09:33:26;101656.63;;;29.28;77.22
32324;BME280;25666;44.350;9.222;2022-07-10T09:35:55;101650.72;;;29.06;79.98
32324;BME280;25666;44.350;9.222;2022-07-10T09:41:23;101646.94;;;29.09;85.86
32324;BME280;25666;44.350;9.222;2022-07-10T09:43:50;101647.03;;;28.93;89.39
32324;BME280;25666;44.350;9.222;2022-07-10T09:46:20;101645.69;;;29.10;89.98
32324;BME280;25666;44.350;9.222;2022-07-10T09:48:47;101636.50;;;29.02;91.50
32324;BME280;25666;44.350;9.222;2022-07-10T09:51:13;101642.53;;;28.92;95.03
32324;BME280;25666;44.350;9.222;2022-07-10T09:53:43;101642.03;;;29.09;95.37
32324;BME280;25666;44.350;9.222;2022-07-10T09:56:11;101636.84;;;29.17;90.25
32324;BME280;25666;44.350;9.222;2022-07-10T09:58:38;101639.03;;;29.00;81.84
32324;BME280;25666;44.350;9.222;2022-07-10T10:01:05;101633.03;;;28.95;88.02
32324;BME280;25666;44.350;9.222;2022-07-10T10:03:38;101633.72;;;28.86;88.36
32324;BME280;25666;44.350;9.222;2022-07-10T10:06:11;101633.47;;;28.81;89.94
32324;BME280;25666;44.350;9.222;2022-07-10T10:08:56;101634.84;;;28.89;98.61
32324;BME280;25666;44.350;9.222;2022-07-10T10:11:26;101638.66;;;28.98;95.82
32324;BME280;25666;44.350;9.222;2022-07-10T10:13:53;101629.81;;;28.93;91.29
32324;BME280;25666;44.350;9.222;2022-07-10T10:16:19;101628.69;;;28.90;86.61
32324;BME280;25666;44.350;9.222;2022-07-10T10:18:46;101622.28;;;28.99;90.63
32324;BME280;25666;44.350;9.222;2022-07-10T10:21:30;101622.03;;;28.93;86.28
32324;BME280;25666;44.350;9.222;2022-07-10T10:23:56;101620.28;;;28.83;91.84
32324;BME280;25666;44.350;9.222;2022-07-10T10:26:23;101616.38;;;28.77;93.36
32324;BME280;25666;44.350;9.222;2022-07-10T10:28:54;101617.53;;;28.51;95.65
32324;BME280;25666;44.350;9.222;2022-07-10T10:31:22;101612.13;;;28.40;96.44
32324;BME280;25666;44.350;9.222;2022-07-10T10:33:48;101609.97;;;28.44;89.56
32324;BME280;25666;44.350;9.222;2022-07-10T10:39:18;101607.59;;;28.55;97.81
32324;BME280;25666;44.350;9.222;2022-07-10T10:41:50;101608.19;;;28.63;100.00
32324;BME280;25666;44.350;9.222;2022-07-10T10:49:20;101612.00;;;28.73;90.70
32324;BME280;25666;44.350;9.222;2022-07-10T10:51:56;101609.75;;;28.80;88.43
32324;BME280;25666;44.350;9.222;2022-07-10T10:54:22;101606.63;;;28.46;97.95
32324;BME280;25666;44.350;9.222;2022-07-10T10:57:13;101615.19;;;28.62;100.00
32324;BME280;25666;44.350;9.222;2022-07-10T10:59:44;101611.00;;;28.79;100.00
32324;BME280;25666;44.350;9.222;2022-07-10T11:02:32;101604.44;;;28.66;100.00
32324;BME280;25666;44.350;9.222;2022-07-10T11:08:00;101597.09;;;28.36;100.00
32324;BME280;25666;44.350;9.222;2022-07-10T11:12:59;101592.97;;;28.37;94.99
32324;BME280;25666;44.350;9.222;2022-07-10T11:15:26;101586.09;;;28.35;95.81
32324;BME280;25666;44.350;9.222;2022-07-10T11:17:52;101586.72;;;28.55;99.38
32324;BME280;25666;44.350;9.222;2022-07-10T11:20:18;101589.75;;;28.35;97.78
32324;BME280;25666;44.350;9.222;2022-07-10T11:30:23;101582.72;;;28.24;87.01
32324;BME280;25666;44.350;9.222;2022-07-10T11:32:49;101586.50;;;28.21;84.67
32324;BME280;25666;44.350;9.222;2022-07-10T11:35:16;101585.94;;;28.26;85.13
32324;BME280;25666;44.350;9.222;2022-07-10T11:37:51;101573.63;;;28.41;94.57
32324;BME280;25666;44.350;9.222;2022-07-10T11:40:18;101572.28;;;28.46;87.92
32324;BME280;25666;44.350;9.222;2022-07-10T11:42:52;101578.28;;;28.64;88.01
32324;BME280;25666;44.350;9.222;2022-07-10T11:45:26;101574.66;;;28.35;96.49
32324;BME280;25666;44.350;9.222;2022-07-10T11:47:52;101567.59;;;28.52;98.76
32324;BME280;25666;44.350;9.222;2022-07-10T11:50:18;101571.78;;;28.76;92.59
32324;BME280;25666;44.350;9.222;2022-07-10T11:52:45;101572.38;;;28.71;91.72
32324;BME280;25666;44.350;9.222;2022-07-10T11:55:22;101566.16;;;28.73;87.41
32324;BME280;25666;44.350;9.222;2022-07-10T11:57:48;101559.66;;;28.72;80.44
32324;BME280;25666;44.350;9.222;2022-07-10T12:00:27;101567.22;;;28.37;93.17
32324;BME280;25666;44.350;9.222;2022-07-10T12:02:54;101562.78;;;28.49;82.23
32324;BME280;25666;44.350;9.222;2022-07-10T12:05:37;101561.28;;;28.57;92.53
32324;BME280;25666;44.350;9.222;2022-07-10T12:08:04;101556.84;;;28.56;99.35
32324;BME280;25666;44.350;9.222;2022-07-10T12:10:32;101555.91;;;28.59;97.06
32324;BME280;25666;44.350;9.222;2022-07-10T12:13:12;101557.97;;;28.58;100.00
32324;BME280;25666;44.350;9.222;2022-07-10T12:15:46;101555.00;;;28.62;100.00
32324;BME280;25666;44.350;9.222;2022-07-10T12:18:17;101558.69;;;28.62;94.18
32324;BME280;25666;44.350;9.222;2022-07-10T12:20:44;101544.50;;;28.30;98.08
32324;BME280;25666;44.350;9.222;2022-07-10T12:23:17;101551.53;;;28.54;88.84
32324;BME280;25666;44.350;9.222;2022-07-10T12:25:44;101549.16;;;28.53;94.07
32324;BME280;25666;44.350;9.222;2022-07-10T12:28:09;101547.34;;;28.59;97.48
32324;BME280;25666;44.350;9.222;2022-07-10T12:30:43;101544.28;;;28.66;94.36
32324;BME280;25666;44.350;9.222;2022-07-10T12:33:14;101539.97;;;28.45;100.00
32324;BME280;25666;44.350;9.222;2022-07-10T12:35:57;101544.84;;;28.32;100.00
32324;BME280;25666;44.350;9.222;2022-07-10T12:38:24;101543.19;;;28.47;100.00
32324;BME280;25666;44.350;9.222;2022-07-10T12:40:51;101553.50;;;28.57;100.00
32324;BME280;25666;44.350;9.222;2022-07-10T12:43:29;101552.59;;;28.60;100.00
32324;BME280;25666;44.350;9.222;2022-07-10T12:48:43;101551.00;;;28.59;100.00
32324;BME280;25666;44.350;9.222;2022-07-10T12:51:24;101550.91;;;28.63;100.00
32324;BME280;25666;44.350;9.222;2022-07-10T12:53:50;101552.69;;;28.57;100.00
32324;BME280;25666;44.350;9.222;2022-07-10T12:56:37;101546.97;;;28.57;100.00
32324;BME280;25666;44.350;9.222;2022-07-10T12:59:13;101536.59;;;28.22;100.00
32324;BME280;25666;44.350;9.222;2022-07-10T13:01:45;101540.31;;;28.47;99.91
32324;BME280;25666;44.350;9.222;2022-07-10T13:04:11;101546.16;;;28.44;100.00
32324;BME280;25666;44.350;9.222;2022-07-10T13:06:38;101534.03;;;28.52;100.00
32324;BME280;25666;44.350;9.222;2022-07-10T13:09:22;101543.72;;;28.42;100.00
32324;BME280;25666;44.350;9.222;2022-07-10T13:11:49;101540.44;;;28.44;100.00